Nordic Currents — CFN4326 — position and weather

sailwx.info

Track history (hours):
 
Tides and Currents Weather Stations Pressure Air Temp Water Temp Dewpoint Dewpoint Depression Visibility Wind Speed Wind Dir Waves Ship Positions

Nordic Currents

Last reported at 2016-Oct-11 19:16 UTC. Time now 2016-Dec-09 23:19 UTC.
Position N 48°56' W 123°36'.
Warning: this ship's position is 59 days out of date.

Type: Pleasure craft. MMSI: 316010421.

Date/timePositionNaut miles runAvg speedWind from/ knotsBaromVisibWave heightAir tempDewpointWater temp
2016-Oct-11 19:16N 48°56' W 123°36'3 0.1
2016-Oct-10 12:06N 48°59' W 123°40'0 0.0
2016-Oct-10 09:30N 48°59' W 123°40'0 0.0
2016-Oct-09 04:12N 48°59' W 123°40'0 0.0
2016-Oct-09 01:15N 48°59' W 123°40'0 0.0
2016-Oct-08 16:21N 48°59' W 123°40'0 0.0
2016-Oct-08 07:15N 48°59' W 123°40'7 0.8
2016-Oct-07 22:31N 48°52' W 123°36'7 6.2
2016-Oct-07 21:20N 48°45' W 123°34'9 1.8
2016-Oct-07 16:32N 48°39' W 123°24'0 0.0
2016-Oct-07 14:16N 48°39' W 123°24'0 0.0
2016-Oct-07 12:32N 48°39' W 123°24'0 0.0
2016-Oct-07 09:32N 48°39' W 123°24'0 0.0
2016-Oct-07 03:26N 48°39' W 123°24'0 0.0
2016-Oct-07 02:26N 48°39' W 123°24'0 0.0
2016-Oct-06 23:31N 48°39' W 123°24'  
Track history (hours):
 
Tides and Currents Weather Stations Pressure Air Temp Water Temp Dewpoint Dewpoint Depression Visibility Wind Speed Wind Dir Waves Ship Positions

Nordic Currents

Last reported at 2016-Oct-11 19:16 UTC. Time now 2016-Dec-09 23:19 UTC.
Position N 48°56' W 123°36'.
Warning: this ship's position is 59 days out of date.

Type: Pleasure craft. MMSI: 316010421.

Date/timePositionNaut miles runAvg speedWind from/ knotsBaromVisibWave heightAir tempDewpointWater temp
2016-Oct-11 19:16N 48°56' W 123°36'3 0.1
2016-Oct-10 12:06N 48°59' W 123°40'0 0.0
2016-Oct-10 09:30N 48°59' W 123°40'0 0.0
2016-Oct-09 04:12N 48°59' W 123°40'0 0.0
2016-Oct-09 01:15N 48°59' W 123°40'0 0.0
2016-Oct-08 16:21N 48°59' W 123°40'0 0.0
2016-Oct-08 07:15N 48°59' W 123°40'7 0.8
2016-Oct-07 22:31N 48°52' W 123°36'7 6.2
2016-Oct-07 21:20N 48°45' W 123°34'9 1.8
2016-Oct-07 16:32N 48°39' W 123°24'0 0.0
2016-Oct-07 14:16N 48°39' W 123°24'0 0.0
2016-Oct-07 12:32N 48°39' W 123°24'0 0.0
2016-Oct-07 09:32N 48°39' W 123°24'0 0.0
2016-Oct-07 03:26N 48°39' W 123°24'0 0.0
2016-Oct-07 02:26N 48°39' W 123°24'0 0.0
2016-Oct-06 23:31N 48°39' W 123°24'  

Dump ship's entire track history